Ismail Al Kamali

Olheiro - Al Ain
17 Jul 2027
Sábado
Processo

Personalidade

Adaptabilidade (7) Ambição (4) Controvérsia (13) Lealdade (1) Pressão (7) Profissionalismo (6) Espírito Esportivo (20) Temperamento (1)

Perfil

Estilo de Treinamento Democrático
Licença Continental Pro
Determinação 14
Gestão de Pessoas 8
Motivação 9
Disciplina 14
Satisfação no Trabalho
56%
Fadiga
0%
Função Olheiro
Salário 35.7K p/s
Contrato 14.03.2028

Desempenho

Comportamento Bom
Eficácia do Treinamento
27%
Desenvolvimento do Jogador
25%
Prevenção de Lesões
30%
Implementação Tática
35%

Eventos Recentes

Avaliou um jogador 7d atrás
Participou de uma reunião de recrutamento 7d atrás
Participou de uma reunião de recrutamento 7d atrás
Avaliou um jogador 7d atrás
Participou de uma reunião de recrutamento 14d atrás
Participou de uma reunião de recrutamento 14d atrás
Participou de uma reunião de recrutamento 21d atrás
Apresentou um dossiê à direção 21d atrás

Monitorando agora

106
Jogador Clube Status Habilidade Confiança Observado Última observação Último voto
Eduardo Felicíssimo Sporting CP Ativo 117 / 133 40% 3 07.07.2027 -
Mauricio Amaro Atlanta United FC Ativo 132 / 136 40% 1 07.07.2027 -
Camilo Rey Domenech Racing Club Ativo 129 / 143 40% 1 07.07.2027 -
Matvey Kislyak Lokomotiv Moscow Ativo 136 / 139 40% 7 05.07.2027 -
Inti Borghetto Patronato Ativo 90 / 81 40% 1 05.07.2027 -
Tiago Gordillo San Miguel Ativo 93 / 91 40% 1 05.07.2027 -
Ben Chrisene Sheffield Wednesday Ativo 124 / 110 40% 1 30.05.2027 -
Lewis O'Brien Wrexham Ativo 119 / 123 40% 2 29.05.2027 -
Matt Clarke Derby County Ativo 124 / 133 40% 1 29.05.2027 -
Brian De Keersmaecker Oxford United Ativo 125 / 123 40% 1 28.05.2027 -
Ilario Monterisi Frosinone Ativo 121 / 112 40% 1 28.05.2027 -
Tiago Freitas Benfica Ativo 115 / 115 40% 1 28.05.2027 -
Facundo Balatti Penarol Ativo 112 / 98 40% 1 28.05.2027 -
Jonathan De Irastorza Levante Ativo 125 / 136 40% 3 27.05.2027 -
Karim Coulibaly RC Strasbourg Ativo 110 / 134 40% 1 27.05.2027 -
Ronan Kpakio Brentford Ativo 107 / 126 40% 3 26.05.2027 -
Leandro Martins Benfica Ativo 102 / 109 40% 3 26.05.2027 -
Godwin Oham Warri Wolves Ativo 89 / 80 40% 1 26.05.2027 -
Facundo Di Biasi Getafe Ativo 110 / 126 40% 2 24.05.2027 -
Relebohile Mofokeng Orlando Pirates Ativo 130 / 135 40% 3 21.05.2027 -
Paddy Lane Reading Ativo 114 / 114 40% 3 21.05.2027 -
Jayden Nelson Bolton Wanderers Ativo 111 / 110 40% 1 21.05.2027 -
Marc Bola Watford Ativo 128 / 110 40% 1 21.05.2027 -
Stephen Eustáquio Swansea City Ativo 128 / 125 40% 1 21.05.2027 -
Hamdi Labidi Olympique Akbou Ativo 109 / 98 40% 3 19.05.2027 -
Isma Ruiz Córdoba Ativo 133 / 128 40% 3 19.05.2027 -
Myles Peart-Harris Oxford United Ativo 124 / 102 40% 1 19.05.2027 -
Jacopo Bacci Sorrento Ativo 91 / 87 40% 3 18.05.2027 -
Teden Mengi Luton Town Ativo 134 / 138 40% 2 18.05.2027 -
Nahitan Nández Al-Qadisiyah Ativo 143 / 151 40% 2 18.05.2027 -
Josh Brownhill Al-Shabab Ativo 126 / 123 40% 1 18.05.2027 -
Andrey Ivlev Nizhniy Novgorod Ativo 113 / 125 40% 1 16.05.2027 -
Atsuki Ito Bolton Wanderers Ativo 134 / 137 40% 2 11.05.2027 -
Ross McCrorie Bristol City Ativo 117 / 117 40% 2 11.05.2027 -
Mohau Nkota Al-Ettifaq Ativo 121 / 124 40% 3 10.05.2027 -
Aidomo Emakhu Oxford United Ativo 130 / 112 40% 2 10.05.2027 -
Tyler Goodrham Oxford United Ativo 117 / 118 40% 1 10.05.2027 -
Musab Al-Juwayr Al-Qadisiyah Ativo 136 / 142 40% 2 08.05.2027 -
Xavier Amaechi Plymouth Argyle Ativo 102 / 122 40% 1 08.05.2027 -
Eduard Spertsyan Al-Ahli Ativo 138 / 130 40% 1 08.05.2027 Mais informações
Olaniyi Saheed Kwara United Ativo 93 / 95 40% 1 07.05.2027 -
Zaydou Youssouf Al-Fateh Ativo 128 / 128 40% 2 06.05.2027 -
Aleksa Terzić Frosinone Ativo 122 / 140 40% 1 06.05.2027 -
Camilo Durán Bloemfontein Celtic Ativo 135 / 116 40% 5 05.05.2027 -
Rayyan Enad Al-Fayha Ativo 111 / 90 40% 3 03.05.2027 -
Surprise Manthosi Polokwane City Ativo 92 / 97 40% 1 03.05.2027 -
Valentin Atangana Al-Ahli Ativo 128 / 140 40% 3 30.04.2027 -
Juan David Arizala Udinese Ativo 122 / 136 40% 1 30.04.2027 -
Daniel Kyerewaa Reading Ativo 122 / 107 40% 3 29.04.2027 -
Tshepang Moremi Orlando Pirates Ativo 112 / 104 40% 2 25.04.2027 -
Max Conway Bolton Wanderers Ativo 130 / 104 40% 1 25.04.2027 -
Marouan Azarkan Al Nasr Ativo 124 / 113 40% 2 23.04.2027 -
Matheus Gonçalves Al-Ahli Ativo 122 / 123 40% 3 23.04.2027 -
Kortney Hause Bristol Rovers Ativo 114 / 114 40% 1 23.04.2027 -
Ishak Talal Boussouf MC Alger Ativo 105 / 114 40% 3 21.04.2027 -
Isaiah Jones Luton Town Ativo 123 / 135 40% 1 21.04.2027 -
Archie Collins Peterborough United Ativo 107 / 94 40% 1 20.04.2027 -
Ethan Williams Peterborough United Ativo 111 / 137 40% 1 20.04.2027 -
Martim Cunha Porto Ativo 105 / 111 40% 2 19.04.2027 -
Ezra Mayers West Ham United Ativo 121 / 141 40% 1 19.04.2027 -
Ali Majrashi Al-Ahli Ativo 134 / 128 40% 2 17.04.2027 -
Muhannad Al-Shanqiti Al-Ittihad Ativo 118 / 114 40% 1 16.04.2027 -
Moussa Diarra Al Wahda Ativo 133 / 116 40% 1 16.04.2027 Mais informações
Kennedy Boateng Al-Fateh Ativo 118 / 135 40% 1 16.04.2027 -
Dylan Lawlor Cardiff City Ativo 128 / 120 40% 1 15.04.2027 -
Alex Robertson Cardiff City Ativo 128 / 129 40% 1 09.04.2027 -
Eoin Toal Bolton Wanderers Ativo 131 / 114 40% 2 08.04.2027 -
Sergej Milinković-Savić Al-Hilal Ativo 161 / 167 40% 2 08.04.2027 -
Aschraf El Mahdioui Al-Taawoun Ativo 125 / 124 40% 1 07.04.2027 -
Luis Milla Como Ativo 137 / 138 40% 1 06.04.2027 -
Davide Bartesaghi AC Milan Ativo 126 / 147 40% 1 29.03.2027 -
Diego Rossi Forli Ativo 82 / 102 40% 1 29.03.2027 -
Yacine Adli Al-Shabab Ativo 139 / 148 40% 2 27.03.2027 -
Ângelo Al-Nassr Ativo 131 / 146 40% 1 27.03.2027 -
Cameron Pring Bristol City Ativo 137 / 139 40% 1 27.03.2027 -
Ahmed Abdin Wadi Degla Ativo 87 / 97 40% 1 26.03.2027 -
Edwin Asamoah Berekum Chelsea Ativo 89 / 95 40% 1 26.03.2027 -
Mohamed Kanno Al-Hilal Ativo 128 / 117 40% 1 24.03.2027 -
Toby Collyer West Bromwich Albion Ativo 138 / 133 40% 1 24.03.2027 -
Hugo Moura Al-Fayha Ativo 130 / 122 40% 1 22.03.2027 -
Mahmoud Diasty Wadi Degla Ativo 107 / 96 40% 1 18.03.2027 -
Christopher Bonsu Baah Al-Qadisiyah Ativo 123 / 138 40% 1 18.03.2027 -
Salem Al Naqbi Al Shabab Ativo 97 / 125 40% 3 17.03.2027 -
Moncef Zekri Sporting CP Ativo 101 / 93 40% 1 17.03.2027 -
Maeson King Blackpool Ativo 106 / 117 40% 1 16.03.2027 -
Eivind Helland Bologna Ativo 126 / 123 40% 1 16.03.2027 -
Mduduzi Shabalala Kaizer Chiefs Ativo 115 / 112 40% 2 13.03.2027 -
Daniel Awuni Aduana Stars Ativo 95 / 86 40% 1 13.03.2027 -
Mohamed Réda Hamidi JS Kabylie Ativo 107 / 119 40% 2 09.03.2027 -
Helinho Toluca Ativo 123 / 116 40% 1 09.03.2027 -
David Ozoh Derby County Ativo 120 / 127 40% 3 07.03.2027 -
Dayann Methalie Everton Ativo 138 / 153 40% 1 07.03.2027 -
Samuele Diodato Lumezzane Ativo 104 / 92 40% 1 03.03.2027 -
Luca Lipani Frosinone Ativo 111 / 139 40% 1 03.03.2027 -
Salman Al-Hassan Al-Mojzel Ativo 94 / 92 40% 1 25.02.2027 -
Petar Stanić Ludogorets Ativo 142 / 135 40% 2 22.02.2027 -
Aiman Yahya Al-Nassr Ativo 124 / 117 40% 1 22.02.2027 -
Gladson Sulemana Liberty Professionals Ativo 91 / 97 40% 1 21.02.2027 -
Mohammed Wakaso Hasaacas Ativo 102 / 114 40% 1 15.02.2027 -
Leonardo Mendicino Bari Ativo 123 / 127 40% 1 15.02.2027 -
Hamad Juma Al Shaab Ativo 97 / 95 40% 2 08.02.2027 -
Daniel Kelly Derby County Ativo 101 / 108 40% 1 05.02.2027 -
Bassam Al-Hurayji Al-Taawoun Ativo 109 / 107 40% 1 04.02.2027 -
Sulaiman Hazazi Al-Riyadh Ativo 96 / 93 40% 1 04.02.2027 -
Oussama Benattia ASO Chlef Ativo 93 / 79 40% 1 03.02.2027 -
Turki Al-Ammar Al-Qadisiyah Ativo 130 / 107 40% 1 01.02.2027 -